sensor_id;sensor_type;location;lat;lon;timestamp;P1;durP1;ratioP1;P2;durP2;ratioP2
59294;SDS011;45067;44.654;20.200;2022-10-29T00:02:03;56.65;;;31.75;;
59294;SDS011;45067;44.654;20.200;2022-10-29T00:04:29;83.35;;;33.72;;
59294;SDS011;45067;44.654;20.200;2022-10-29T00:06:55;105.35;;;36.90;;
59294;SDS011;45067;44.654;20.200;2022-10-29T00:09:21;55.97;;;31.52;;
59294;SDS011;45067;44.654;20.200;2022-10-29T00:14:51;62.53;;;31.02;;
59294;SDS011;45067;44.654;20.200;2022-10-29T00:17:17;50.00;;;30.27;;
59294;SDS011;45067;44.654;20.200;2022-10-29T00:19:43;44.70;;;28.95;;
59294;SDS011;45067;44.654;20.200;2022-10-29T00:22:09;58.75;;;31.67;;
59294;SDS011;45067;44.654;20.200;2022-10-29T00:24:35;184.95;;;34.95;;
59294;SDS011;45067;44.654;20.200;2022-10-29T00:30:05;82.65;;;28.83;;
59294;SDS011;45067;44.654;20.200;2022-10-29T00:32:31;91.18;;;29.00;;
59294;SDS011;45067;44.654;20.200;2022-10-29T00:34:57;94.10;;;28.55;;
59294;SDS011;45067;44.654;20.200;2022-10-29T00:37:23;62.40;;;28.60;;
59294;SDS011;45067;44.654;20.200;2022-10-29T00:39:49;73.28;;;29.65;;
59294;SDS011;45067;44.654;20.200;2022-10-29T00:42:15;71.45;;;30.13;;
59294;SDS011;45067;44.654;20.200;2022-10-29T00:44:42;64.97;;;31.10;;
59294;SDS011;45067;44.654;20.200;2022-10-29T00:47:15;56.65;;;30.05;;
59294;SDS011;45067;44.654;20.200;2022-10-29T00:49:42;57.40;;;30.67;;
59294;SDS011;45067;44.654;20.200;2022-10-29T00:52:10;65.57;;;31.98;;
59294;SDS011;45067;44.654;20.200;2022-10-29T00:54:37;61.97;;;30.77;;
59294;SDS011;45067;44.654;20.200;2022-10-29T01:00:08;71.32;;;31.67;;
59294;SDS011;45067;44.654;20.200;2022-10-29T01:02:35;54.50;;;29.92;;
59294;SDS011;45067;44.654;20.200;2022-10-29T01:05:03;57.88;;;28.65;;
59294;SDS011;45067;44.654;20.200;2022-10-29T01:07:29;57.08;;;29.05;;
59294;SDS011;45067;44.654;20.200;2022-10-29T01:09:55;72.45;;;30.38;;
59294;SDS011;45067;44.654;20.200;2022-10-29T01:12:35;54.22;;;29.25;;
59294;SDS011;45067;44.654;20.200;2022-10-29T01:15:09;54.17;;;31.42;;
59294;SDS011;45067;44.654;20.200;2022-10-29T01:23:37;67.85;;;34.40;;
59294;SDS011;45067;44.654;20.200;2022-10-29T01:26:00;78.75;;;35.95;;
59294;SDS011;45067;44.654;20.200;2022-10-29T01:31:29;106.22;;;34.70;;
59294;SDS011;45067;44.654;20.200;2022-10-29T01:36:27;96.72;;;34.08;;
59294;SDS011;45067;44.654;20.200;2022-10-29T01:41:24;85.40;;;36.45;;
59294;SDS011;45067;44.654;20.200;2022-10-29T01:44:01;123.78;;;36.42;;
59294;SDS011;45067;44.654;20.200;2022-10-29T01:46:48;75.38;;;35.55;;
59294;SDS011;45067;44.654;20.200;2022-10-29T01:49:17;74.45;;;38.92;;
59294;SDS011;45067;44.654;20.200;2022-10-29T01:51:44;100.17;;;41.50;;
59294;SDS011;45067;44.654;20.200;2022-10-29T01:54:11;89.32;;;40.20;;
59294;SDS011;45067;44.654;20.200;2022-10-29T01:56:37;73.88;;;38.83;;
59294;SDS011;45067;44.654;20.200;2022-10-29T01:59:05;69.63;;;36.92;;
59294;SDS011;45067;44.654;20.200;2022-10-29T02:11:41;58.65;;;33.47;;
59294;SDS011;45067;44.654;20.200;2022-10-29T02:14:11;52.60;;;31.95;;
59294;SDS011;45067;44.654;20.200;2022-10-29T02:16:40;48.47;;;31.27;;
59294;SDS011;45067;44.654;20.200;2022-10-29T02:19:06;45.58;;;29.10;;
59294;SDS011;45067;44.654;20.200;2022-10-29T02:21:32;43.47;;;29.50;;
59294;SDS011;45067;44.654;20.200;2022-10-29T02:23:58;45.53;;;30.90;;
59294;SDS011;45067;44.654;20.200;2022-10-29T02:26:24;41.42;;;29.90;;
59294;SDS011;45067;44.654;20.200;2022-10-29T02:28:50;52.38;;;30.73;;
59294;SDS011;45067;44.654;20.200;2022-10-29T02:31:16;58.92;;;35.75;;
59294;SDS011;45067;44.654;20.200;2022-10-29T02:33:43;62.38;;;34.70;;
59294;SDS011;45067;44.654;20.200;2022-10-29T02:36:09;56.47;;;33.95;;
59294;SDS011;45067;44.654;20.200;2022-10-29T02:38:35;56.65;;;35.15;;
59294;SDS011;45067;44.654;20.200;2022-10-29T02:41:01;59.70;;;35.17;;
59294;SDS011;45067;44.654;20.200;2022-10-29T02:43:27;63.80;;;36.63;;
59294;SDS011;45067;44.654;20.200;2022-10-29T02:46:09;69.75;;;37.75;;
59294;SDS011;45067;44.654;20.200;2022-10-29T02:48:35;74.13;;;36.75;;
59294;SDS011;45067;44.654;20.200;2022-10-29T02:51:02;90.22;;;38.35;;
59294;SDS011;45067;44.654;20.200;2022-10-29T02:53:28;76.78;;;40.67;;
59294;SDS011;45067;44.654;20.200;2022-10-29T02:55:54;72.50;;;38.15;;
59294;SDS011;45067;44.654;20.200;2022-10-29T02:58:20;72.90;;;39.20;;
59294;SDS011;45067;44.654;20.200;2022-10-29T03:00:49;71.45;;;36.92;;
59294;SDS011;45067;44.654;20.200;2022-10-29T03:03:15;71.75;;;35.25;;
59294;SDS011;45067;44.654;20.200;2022-10-29T03:05:41;68.57;;;35.05;;
59294;SDS011;45067;44.654;20.200;2022-10-29T03:08:07;67.32;;;34.78;;
59294;SDS011;45067;44.654;20.200;2022-10-29T03:10:33;73.70;;;35.75;;
59294;SDS011;45067;44.654;20.200;2022-10-29T03:13:00;62.00;;;33.35;;
59294;SDS011;45067;44.654;20.200;2022-10-29T03:15:26;75.38;;;35.20;;
59294;SDS011;45067;44.654;20.200;2022-10-29T03:17:52;68.03;;;34.90;;
59294;SDS011;45067;44.654;20.200;2022-10-29T03:20:18;62.05;;;34.33;;
59294;SDS011;45067;44.654;20.200;2022-10-29T03:22:44;58.10;;;32.78;;
59294;SDS011;45067;44.654;20.200;2022-10-29T03:25:10;47.45;;;31.13;;
59294;SDS011;45067;44.654;20.200;2022-10-29T03:30:40;51.88;;;31.88;;
59294;SDS011;45067;44.654;20.200;2022-10-29T03:33:06;47.70;;;32.88;;
59294;SDS011;45067;44.654;20.200;2022-10-29T03:35:32;51.78;;;35.22;;
59294;SDS011;45067;44.654;20.200;2022-10-29T03:37:58;51.05;;;30.65;;
59294;SDS011;45067;44.654;20.200;2022-10-29T03:40:24;34.90;;;25.85;;
59294;SDS011;45067;44.654;20.200;2022-10-29T03:45:55;44.35;;;25.92;;
59294;SDS011;45067;44.654;20.200;2022-10-29T03:48:22;39.45;;;26.67;;
59294;SDS011;45067;44.654;20.200;2022-10-29T03:51:02;50.90;;;26.23;;
59294;SDS011;45067;44.654;20.200;2022-10-29T03:53:30;43.47;;;29.00;;
59294;SDS011;45067;44.654;20.200;2022-10-29T03:55:56;51.95;;;32.08;;
59294;SDS011;45067;44.654;20.200;2022-10-29T03:58:22;56.65;;;27.70;;
59294;SDS011;45067;44.654;20.200;2022-10-29T04:01:07;52.03;;;35.35;;
59294;SDS011;45067;44.654;20.200;2022-10-29T04:03:34;51.33;;;29.45;;
59294;SDS011;45067;44.654;20.200;2022-10-29T04:06:01;49.55;;;33.95;;
59294;SDS011;45067;44.654;20.200;2022-10-29T04:08:28;111.07;;;53.00;;
59294;SDS011;45067;44.654;20.200;2022-10-29T04:10:54;78.22;;;47.97;;
59294;SDS011;45067;44.654;20.200;2022-10-29T04:13:20;59.65;;;29.85;;
59294;SDS011;45067;44.654;20.200;2022-10-29T04:15:46;56.13;;;28.70;;
59294;SDS011;45067;44.654;20.200;2022-10-29T04:18:15;48.25;;;28.67;;
59294;SDS011;45067;44.654;20.200;2022-10-29T04:20:41;44.78;;;28.73;;
59294;SDS011;45067;44.654;20.200;2022-10-29T04:23:07;56.00;;;31.17;;
59294;SDS011;45067;44.654;20.200;2022-10-29T04:25:33;47.10;;;30.15;;
59294;SDS011;45067;44.654;20.200;2022-10-29T04:31:03;69.72;;;32.30;;
59294;SDS011;45067;44.654;20.200;2022-10-29T04:33:30;47.65;;;29.92;;
59294;SDS011;45067;44.654;20.200;2022-10-29T04:35:56;52.65;;;28.38;;
59294;SDS011;45067;44.654;20.200;2022-10-29T04:38:22;48.28;;;27.98;;
59294;SDS011;45067;44.654;20.200;2022-10-29T04:40:48;117.47;;;29.27;;
59294;SDS011;45067;44.654;20.200;2022-10-29T04:46:18;50.20;;;29.58;;
59294;SDS011;45067;44.654;20.200;2022-10-29T04:48:45;53.30;;;28.73;;
59294;SDS011;45067;44.654;20.200;2022-10-29T04:51:21;54.47;;;27.73;;
59294;SDS011;45067;44.654;20.200;2022-10-29T04:53:47;46.85;;;27.30;;
59294;SDS011;45067;44.654;20.200;2022-10-29T04:56:13;46.50;;;27.23;;
59294;SDS011;45067;44.654;20.200;2022-10-29T04:58:39;53.95;;;29.83;;
59294;SDS011;45067;44.654;20.200;2022-10-29T05:01:05;49.03;;;27.88;;
59294;SDS011;45067;44.654;20.200;2022-10-29T05:03:32;49.53;;;28.83;;
59294;SDS011;45067;44.654;20.200;2022-10-29T05:06:00;46.95;;;28.15;;
59294;SDS011;45067;44.654;20.200;2022-10-29T05:08:27;41.80;;;27.83;;
59294;SDS011;45067;44.654;20.200;2022-10-29T05:10:53;57.50;;;29.20;;
59294;SDS011;45067;44.654;20.200;2022-10-29T05:16:22;48.47;;;29.60;;
59294;SDS011;45067;44.654;20.200;2022-10-29T05:18:48;52.05;;;30.63;;
59294;SDS011;45067;44.654;20.200;2022-10-29T05:21:14;50.13;;;31.15;;
59294;SDS011;45067;44.654;20.200;2022-10-29T05:23:40;69.70;;;31.60;;
59294;SDS011;45067;44.654;20.200;2022-10-29T05:26:07;42.45;;;28.30;;
59294;SDS011;45067;44.654;20.200;2022-10-29T05:31:55;52.53;;;28.33;;
59294;SDS011;45067;44.654;20.200;2022-10-29T05:34:21;42.83;;;28.80;;
59294;SDS011;45067;44.654;20.200;2022-10-29T05:36:47;41.13;;;27.80;;
59294;SDS011;45067;44.654;20.200;2022-10-29T05:39:13;60.10;;;31.02;;
59294;SDS011;45067;44.654;20.200;2022-10-29T05:41:40;62.22;;;31.08;;
59294;SDS011;45067;44.654;20.200;2022-10-29T05:44:06;42.63;;;29.05;;
59294;SDS011;45067;44.654;20.200;2022-10-29T05:46:32;49.70;;;28.13;;
59294;SDS011;45067;44.654;20.200;2022-10-29T05:48:58;55.28;;;30.67;;
59294;SDS011;45067;44.654;20.200;2022-10-29T05:51:24;74.68;;;30.20;;
59294;SDS011;45067;44.654;20.200;2022-10-29T05:53:50;46.97;;;29.48;;
59294;SDS011;45067;44.654;20.200;2022-10-29T05:56:16;64.90;;;30.58;;
59294;SDS011;45067;44.654;20.200;2022-10-29T05:58:42;54.40;;;27.85;;
59294;SDS011;45067;44.654;20.200;2022-10-29T06:01:09;55.90;;;29.60;;
59294;SDS011;45067;44.654;20.200;2022-10-29T06:03:36;57.70;;;29.33;;
59294;SDS011;45067;44.654;20.200;2022-10-29T06:06:02;57.40;;;29.88;;
59294;SDS011;45067;44.654;20.200;2022-10-29T06:08:28;91.07;;;28.48;;
59294;SDS011;45067;44.654;20.200;2022-10-29T06:10:59;83.90;;;28.50;;
59294;SDS011;45067;44.654;20.200;2022-10-29T06:16:29;61.13;;;30.73;;
59294;SDS011;45067;44.654;20.200;2022-10-29T06:18:55;74.68;;;28.17;;
59294;SDS011;45067;44.654;20.200;2022-10-29T06:21:21;61.50;;;29.67;;
59294;SDS011;45067;44.654;20.200;2022-10-29T06:23:50;52.50;;;30.15;;
59294;SDS011;45067;44.654;20.200;2022-10-29T06:26:18;42.80;;;27.83;;
59294;SDS011;45067;44.654;20.200;2022-10-29T06:31:47;68.15;;;29.63;;
59294;SDS011;45067;44.654;20.200;2022-10-29T06:34:13;60.72;;;29.00;;
59294;SDS011;45067;44.654;20.200;2022-10-29T06:36:40;58.00;;;28.52;;
59294;SDS011;45067;44.654;20.200;2022-10-29T06:39:06;62.28;;;29.58;;
59294;SDS011;45067;44.654;20.200;2022-10-29T06:41:32;50.10;;;29.75;;
59294;SDS011;45067;44.654;20.200;2022-10-29T06:43:58;63.00;;;29.05;;
59294;SDS011;45067;44.654;20.200;2022-10-29T06:46:25;75.75;;;29.38;;
59294;SDS011;45067;44.654;20.200;2022-10-29T06:48:51;50.63;;;27.65;;
59294;SDS011;45067;44.654;20.200;2022-10-29T06:51:17;54.45;;;28.60;;
59294;SDS011;45067;44.654;20.200;2022-10-29T06:53:43;58.83;;;28.35;;
59294;SDS011;45067;44.654;20.200;2022-10-29T06:56:09;59.80;;;30.83;;
59294;SDS011;45067;44.654;20.200;2022-10-29T07:01:38;45.05;;;30.70;;
59294;SDS011;45067;44.654;20.200;2022-10-29T07:04:07;57.58;;;32.20;;
59294;SDS011;45067;44.654;20.200;2022-10-29T07:06:33;46.70;;;31.23;;
59294;SDS011;45067;44.654;20.200;2022-10-29T07:09:02;49.95;;;30.85;;
59294;SDS011;45067;44.654;20.200;2022-10-29T07:11:28;53.78;;;32.03;;
59294;SDS011;45067;44.654;20.200;2022-10-29T07:16:58;56.40;;;33.50;;
59294;SDS011;45067;44.654;20.200;2022-10-29T07:19:24;56.65;;;34.28;;
59294;SDS011;45067;44.654;20.200;2022-10-29T07:21:50;61.33;;;38.80;;
59294;SDS011;45067;44.654;20.200;2022-10-29T07:24:16;58.10;;;35.70;;
59294;SDS011;45067;44.654;20.200;2022-10-29T07:26:42;58.75;;;33.70;;
59294;SDS011;45067;44.654;20.200;2022-10-29T07:32:12;64.75;;;32.53;;
59294;SDS011;45067;44.654;20.200;2022-10-29T07:34:38;66.00;;;36.05;;
59294;SDS011;45067;44.654;20.200;2022-10-29T07:37:04;54.30;;;35.13;;
59294;SDS011;45067;44.654;20.200;2022-10-29T07:39:33;57.28;;;36.38;;
59294;SDS011;45067;44.654;20.200;2022-10-29T07:41:59;53.03;;;35.03;;
59294;SDS011;45067;44.654;20.200;2022-10-29T07:44:25;69.38;;;36.83;;
59294;SDS011;45067;44.654;20.200;2022-10-29T07:46:51;71.30;;;35.92;;
59294;SDS011;45067;44.654;20.200;2022-10-29T07:49:17;55.58;;;36.05;;
59294;SDS011;45067;44.654;20.200;2022-10-29T07:51:43;48.95;;;33.80;;
59294;SDS011;45067;44.654;20.200;2022-10-29T07:54:10;47.85;;;32.92;;
59294;SDS011;45067;44.654;20.200;2022-10-29T07:56:36;48.45;;;32.30;;
59294;SDS011;45067;44.654;20.200;2022-10-29T08:02:07;53.65;;;34.20;;
59294;SDS011;45067;44.654;20.200;2022-10-29T08:04:34;53.22;;;35.13;;
59294;SDS011;45067;44.654;20.200;2022-10-29T08:07:00;48.25;;;33.90;;
59294;SDS011;45067;44.654;20.200;2022-10-29T08:09:26;49.13;;;33.85;;
59294;SDS011;45067;44.654;20.200;2022-10-29T08:11:52;49.88;;;35.00;;
59294;SDS011;45067;44.654;20.200;2022-10-29T08:17:22;49.97;;;35.85;;
59294;SDS011;45067;44.654;20.200;2022-10-29T08:19:48;53.10;;;37.35;;
59294;SDS011;45067;44.654;20.200;2022-10-29T08:22:14;53.97;;;37.72;;
59294;SDS011;45067;44.654;20.200;2022-10-29T08:24:40;54.75;;;38.58;;
59294;SDS011;45067;44.654;20.200;2022-10-29T08:27:06;54.42;;;36.63;;
59294;SDS011;45067;44.654;20.200;2022-10-29T08:29:32;53.63;;;36.53;;
59294;SDS011;45067;44.654;20.200;2022-10-29T08:31:58;62.25;;;38.95;;
59294;SDS011;45067;44.654;20.200;2022-10-29T08:34:24;51.60;;;35.80;;
59294;SDS011;45067;44.654;20.200;2022-10-29T08:36:51;55.78;;;37.17;;
59294;SDS011;45067;44.654;20.200;2022-10-29T08:39:17;56.30;;;37.83;;
59294;SDS011;45067;44.654;20.200;2022-10-29T08:47:19;59.38;;;40.05;;
59294;SDS011;45067;44.654;20.200;2022-10-29T08:54:38;57.88;;;39.45;;
59294;SDS011;45067;44.654;20.200;2022-10-29T09:03:13;57.42;;;39.75;;
59294;SDS011;45067;44.654;20.200;2022-10-29T09:08:32;55.08;;;40.40;;
59294;SDS011;45067;44.654;20.200;2022-10-29T09:11:11;52.38;;;37.05;;
59294;SDS011;45067;44.654;20.200;2022-10-29T09:14:00;53.47;;;38.50;;
59294;SDS011;45067;44.654;20.200;2022-10-29T09:16:31;52.63;;;37.53;;
59294;SDS011;45067;44.654;20.200;2022-10-29T09:24:20;43.35;;;33.05;;
59294;SDS011;45067;44.654;20.200;2022-10-29T09:26:56;42.17;;;32.97;;
59294;SDS011;45067;44.654;20.200;2022-10-29T09:29:38;41.30;;;32.28;;
59294;SDS011;45067;44.654;20.200;2022-10-29T09:32:19;44.63;;;32.58;;
59294;SDS011;45067;44.654;20.200;2022-10-29T09:34:50;40.85;;;30.98;;
59294;SDS011;45067;44.654;20.200;2022-10-29T09:39:43;39.75;;;29.50;;
59294;SDS011;45067;44.654;20.200;2022-10-29T09:42:12;36.17;;;28.27;;
59294;SDS011;45067;44.654;20.200;2022-10-29T09:44:48;41.22;;;31.02;;
59294;SDS011;45067;44.654;20.200;2022-10-29T09:47:35;32.88;;;27.40;;
59294;SDS011;45067;44.654;20.200;2022-10-29T09:52:48;35.80;;;26.98;;
59294;SDS011;45067;44.654;20.200;2022-10-29T09:55:37;36.67;;;28.15;;
59294;SDS011;45067;44.654;20.200;2022-10-29T10:01:04;40.15;;;27.92;;
59294;SDS011;45067;44.654;20.200;2022-10-29T10:06:09;38.83;;;27.75;;
59294;SDS011;45067;44.654;20.200;2022-10-29T10:08:57;37.28;;;27.90;;
59294;SDS011;45067;44.654;20.200;2022-10-29T10:11:21;40.90;;;29.15;;
59294;SDS011;45067;44.654;20.200;2022-10-29T10:16:57;38.85;;;29.90;;
59294;SDS011;45067;44.654;20.200;2022-10-29T10:19:25;36.88;;;29.42;;
59294;SDS011;45067;44.654;20.200;2022-10-29T10:21:55;37.38;;;29.08;;
59294;SDS011;45067;44.654;20.200;2022-10-29T10:24:30;40.55;;;28.70;;
59294;SDS011;45067;44.654;20.200;2022-10-29T10:26:56;35.50;;;28.05;;
59294;SDS011;45067;44.654;20.200;2022-10-29T10:32:26;40.72;;;30.10;;
59294;SDS011;45067;44.654;20.200;2022-10-29T10:34:52;36.38;;;27.95;;
59294;SDS011;45067;44.654;20.200;2022-10-29T10:37:18;34.97;;;27.70;;
59294;SDS011;45067;44.654;20.200;2022-10-29T10:39:49;39.65;;;29.45;;
59294;SDS011;45067;44.654;20.200;2022-10-29T10:42:20;38.05;;;26.80;;
59294;SDS011;45067;44.654;20.200;2022-10-29T10:47:52;56.22;;;42.88;;
59294;SDS011;45067;44.654;20.200;2022-10-29T10:50:32;52.05;;;38.70;;
59294;SDS011;45067;44.654;20.200;2022-10-29T10:53:00;40.63;;;32.80;;
59294;SDS011;45067;44.654;20.200;2022-10-29T10:55:29;41.88;;;32.72;;
59294;SDS011;45067;44.654;20.200;2022-10-29T11:00:22;47.95;;;35.42;;
59294;SDS011;45067;44.654;20.200;2022-10-29T11:05:43;45.72;;;32.42;;
59294;SDS011;45067;44.654;20.200;2022-10-29T11:08:21;46.42;;;34.13;;
59294;SDS011;45067;44.654;20.200;2022-10-29T11:13:17;42.85;;;31.63;;
59294;SDS011;45067;44.654;20.200;2022-10-29T11:18:23;51.85;;;36.95;;
59294;SDS011;45067;44.654;20.200;2022-10-29T11:20:54;55.00;;;38.80;;
59294;SDS011;45067;44.654;20.200;2022-10-29T11:23:33;49.88;;;36.33;;
59294;SDS011;45067;44.654;20.200;2022-10-29T11:26:23;44.88;;;35.10;;
59294;SDS011;45067;44.654;20.200;2022-10-29T11:33:56;39.95;;;31.85;;
59294;SDS011;45067;44.654;20.200;2022-10-29T11:36:29;41.78;;;35.83;;
59294;SDS011;45067;44.654;20.200;2022-10-29T11:39:01;40.83;;;34.83;;
59294;SDS011;45067;44.654;20.200;2022-10-29T11:44:07;33.00;;;29.40;;
59294;SDS011;45067;44.654;20.200;2022-10-29T11:46:40;32.47;;;27.65;;
59294;SDS011;45067;44.654;20.200;2022-10-29T11:54:16;30.23;;;26.85;;
59294;SDS011;45067;44.654;20.200;2022-10-29T11:56:55;29.75;;;26.20;;
59294;SDS011;45067;44.654;20.200;2022-10-29T11:59:48;30.15;;;26.95;;
59294;SDS011;45067;44.654;20.200;2022-10-29T12:04:47;33.38;;;29.33;;
59294;SDS011;45067;44.654;20.200;2022-10-29T12:12:21;33.78;;;30.20;;
59294;SDS011;45067;44.654;20.200;2022-10-29T12:17:29;33.33;;;29.92;;
59294;SDS011;45067;44.654;20.200;2022-10-29T12:22:44;31.58;;;28.38;;
59294;SDS011;45067;44.654;20.200;2022-10-29T12:27:53;28.65;;;25.73;;
59294;SDS011;45067;44.654;20.200;2022-10-29T12:30:22;28.25;;;25.40;;
59294;SDS011;45067;44.654;20.200;2022-10-29T12:40:32;28.05;;;25.10;;
59294;SDS011;45067;44.654;20.200;2022-10-29T12:43:01;27.88;;;25.17;;
59294;SDS011;45067;44.654;20.200;2022-10-29T12:48:06;27.45;;;24.63;;
59294;SDS011;45067;44.654;20.200;2022-10-29T12:55:40;31.48;;;26.48;;
59294;SDS011;45067;44.654;20.200;2022-10-29T13:00:54;27.17;;;23.65;;
59294;SDS011;45067;44.654;20.200;2022-10-29T13:08:54;38.40;;;31.50;;
59294;SDS011;45067;44.654;20.200;2022-10-29T13:11:21;45.83;;;30.48;;
59294;SDS011;45067;44.654;20.200;2022-10-29T13:16:52;38.45;;;28.65;;
59294;SDS011;45067;44.654;20.200;2022-10-29T13:19:25;32.22;;;26.13;;
59294;SDS011;45067;44.654;20.200;2022-10-29T13:24:20;33.90;;;28.58;;
59294;SDS011;45067;44.654;20.200;2022-10-29T13:32:28;24.90;;;22.30;;
59294;SDS011;45067;44.654;20.200;2022-10-29T13:34:55;26.92;;;22.77;;
59294;SDS011;45067;44.654;20.200;2022-10-29T13:37:46;26.10;;;21.80;;
59294;SDS011;45067;44.654;20.200;2022-10-29T13:48:33;22.33;;;19.98;;
59294;SDS011;45067;44.654;20.200;2022-10-29T13:51:08;25.58;;;22.88;;
59294;SDS011;45067;44.654;20.200;2022-10-29T13:53:46;29.48;;;25.55;;
59294;SDS011;45067;44.654;20.200;2022-10-29T13:58:41;27.80;;;22.80;;
59294;SDS011;45067;44.654;20.200;2022-10-29T14:06:44;28.90;;;24.95;;
59294;SDS011;45067;44.654;20.200;2022-10-29T14:09:22;34.90;;;29.77;;
59294;SDS011;45067;44.654;20.200;2022-10-29T14:11:59;35.45;;;27.67;;
59294;SDS011;45067;44.654;20.200;2022-10-29T14:14:28;39.22;;;28.48;;
59294;SDS011;45067;44.654;20.200;2022-10-29T14:17:12;32.08;;;24.70;;
59294;SDS011;45067;44.654;20.200;2022-10-29T14:19:42;33.75;;;24.58;;
59294;SDS011;45067;44.654;20.200;2022-10-29T14:24:44;28.13;;;23.08;;
59294;SDS011;45067;44.654;20.200;2022-10-29T14:27:10;29.95;;;22.95;;
59294;SDS011;45067;44.654;20.200;2022-10-29T14:29:39;30.55;;;24.15;;
59294;SDS011;45067;44.654;20.200;2022-10-29T14:32:16;28.27;;;20.65;;
59294;SDS011;45067;44.654;20.200;2022-10-29T14:34:44;27.90;;;20.95;;
59294;SDS011;45067;44.654;20.200;2022-10-29T14:37:31;31.40;;;20.80;;
59294;SDS011;45067;44.654;20.200;2022-10-29T14:39:57;29.88;;;20.95;;
59294;SDS011;45067;44.654;20.200;2022-10-29T14:44:56;26.52;;;20.67;;
59294;SDS011;45067;44.654;20.200;2022-10-29T14:47:26;33.60;;;23.58;;
59294;SDS011;45067;44.654;20.200;2022-10-29T14:49:53;33.90;;;26.38;;
59294;SDS011;45067;44.654;20.200;2022-10-29T14:52:28;28.95;;;21.67;;
59294;SDS011;45067;44.654;20.200;2022-10-29T14:54:56;32.88;;;19.08;;
59294;SDS011;45067;44.654;20.200;2022-10-29T14:57:23;30.83;;;18.85;;
59294;SDS011;45067;44.654;20.200;2022-10-29T14:59:52;26.42;;;18.42;;
59294;SDS011;45067;44.654;20.200;2022-10-29T15:02:19;25.60;;;18.60;;
59294;SDS011;45067;44.654;20.200;2022-10-29T15:10:01;27.58;;;16.75;;
59294;SDS011;45067;44.654;20.200;2022-10-29T15:12:37;24.77;;;15.07;;
59294;SDS011;45067;44.654;20.200;2022-10-29T15:15:36;23.17;;;15.80;;
59294;SDS011;45067;44.654;20.200;2022-10-29T15:17:57;26.42;;;16.85;;
59294;SDS011;45067;44.654;20.200;2022-10-29T15:20:45;25.40;;;17.83;;
59294;SDS011;45067;44.654;20.200;2022-10-29T15:26:07;29.83;;;19.52;;
59294;SDS011;45067;44.654;20.200;2022-10-29T15:28:38;29.00;;;18.05;;
59294;SDS011;45067;44.654;20.200;2022-10-29T15:31:04;33.28;;;21.20;;
59294;SDS011;45067;44.654;20.200;2022-10-29T15:33:30;27.50;;;18.67;;
59294;SDS011;45067;44.654;20.200;2022-10-29T15:35:58;32.35;;;21.10;;
59294;SDS011;45067;44.654;20.200;2022-10-29T15:43:38;29.95;;;21.83;;
59294;SDS011;45067;44.654;20.200;2022-10-29T15:46:19;35.63;;;24.08;;
59294;SDS011;45067;44.654;20.200;2022-10-29T15:48:46;37.33;;;26.42;;
59294;SDS011;45067;44.654;20.200;2022-10-29T15:51:12;34.70;;;26.10;;
59294;SDS011;45067;44.654;20.200;2022-10-29T15:53:38;37.03;;;28.00;;
59294;SDS011;45067;44.654;20.200;2022-10-29T15:56:04;35.65;;;27.70;;
59294;SDS011;45067;44.654;20.200;2022-10-29T15:58:31;37.97;;;28.23;;
59294;SDS011;45067;44.654;20.200;2022-10-29T16:00:57;33.40;;;26.38;;
59294;SDS011;45067;44.654;20.200;2022-10-29T16:03:25;39.50;;;28.30;;
59294;SDS011;45067;44.654;20.200;2022-10-29T16:05:56;33.25;;;25.60;;
59294;SDS011;45067;44.654;20.200;2022-10-29T16:10:54;38.25;;;27.02;;
59294;SDS011;45067;44.654;20.200;2022-10-29T16:13:21;42.97;;;31.55;;
59294;SDS011;45067;44.654;20.200;2022-10-29T16:15:48;44.20;;;27.60;;
59294;SDS011;45067;44.654;20.200;2022-10-29T16:18:14;49.15;;;33.55;;
59294;SDS011;45067;44.654;20.200;2022-10-29T16:20:40;47.75;;;32.78;;
59294;SDS011;45067;44.654;20.200;2022-10-29T16:23:09;39.13;;;26.80;;
59294;SDS011;45067;44.654;20.200;2022-10-29T16:25:36;35.58;;;25.63;;
59294;SDS011;45067;44.654;20.200;2022-10-29T16:28:02;39.67;;;27.35;;
59294;SDS011;45067;44.654;20.200;2022-10-29T16:30:32;41.10;;;27.88;;
59294;SDS011;45067;44.654;20.200;2022-10-29T16:32:59;37.67;;;27.45;;
59294;SDS011;45067;44.654;20.200;2022-10-29T16:35:27;39.13;;;29.45;;
59294;SDS011;45067;44.654;20.200;2022-10-29T16:37:53;49.17;;;32.70;;
59294;SDS011;45067;44.654;20.200;2022-10-29T16:40:21;41.80;;;31.33;;
59294;SDS011;45067;44.654;20.200;2022-10-29T16:42:47;44.78;;;30.80;;
59294;SDS011;45067;44.654;20.200;2022-10-29T16:45:15;45.83;;;33.25;;
59294;SDS011;45067;44.654;20.200;2022-10-29T16:47:41;43.40;;;31.67;;
59294;SDS011;45067;44.654;20.200;2022-10-29T16:50:09;48.28;;;31.55;;
59294;SDS011;45067;44.654;20.200;2022-10-29T16:52:38;42.80;;;30.98;;
59294;SDS011;45067;44.654;20.200;2022-10-29T16:55:04;43.15;;;29.55;;
59294;SDS011;45067;44.654;20.200;2022-10-29T16:57:31;44.00;;;28.65;;
59294;SDS011;45067;44.654;20.200;2022-10-29T16:59:57;42.17;;;29.60;;
59294;SDS011;45067;44.654;20.200;2022-10-29T17:02:23;39.53;;;28.75;;
59294;SDS011;45067;44.654;20.200;2022-10-29T17:04:49;42.53;;;30.08;;
59294;SDS011;45067;44.654;20.200;2022-10-29T17:07:19;43.10;;;28.20;;
59294;SDS011;45067;44.654;20.200;2022-10-29T17:09:45;41.65;;;29.20;;
59294;SDS011;45067;44.654;20.200;2022-10-29T17:12:11;40.22;;;28.17;;
59294;SDS011;45067;44.654;20.200;2022-10-29T17:14:37;39.03;;;28.38;;
59294;SDS011;45067;44.654;20.200;2022-10-29T17:20:07;44.55;;;29.25;;
59294;SDS011;45067;44.654;20.200;2022-10-29T17:22:33;46.78;;;31.90;;
59294;SDS011;45067;44.654;20.200;2022-10-29T17:24:59;51.05;;;33.80;;
59294;SDS011;45067;44.654;20.200;2022-10-29T17:27:25;59.30;;;37.03;;
59294;SDS011;45067;44.654;20.200;2022-10-29T17:29:52;63.60;;;40.45;;
59294;SDS011;45067;44.654;20.200;2022-10-29T17:32:18;63.25;;;44.67;;
59294;SDS011;45067;44.654;20.200;2022-10-29T17:34:44;68.45;;;45.40;;
59294;SDS011;45067;44.654;20.200;2022-10-29T17:37:10;59.65;;;39.78;;
59294;SDS011;45067;44.654;20.200;2022-10-29T17:39:53;52.88;;;35.78;;
59294;SDS011;45067;44.654;20.200;2022-10-29T17:42:20;77.63;;;49.67;;
59294;SDS011;45067;44.654;20.200;2022-10-29T17:44:46;84.85;;;52.50;;
59294;SDS011;45067;44.654;20.200;2022-10-29T17:50:16;107.78;;;70.53;;
59294;SDS011;45067;44.654;20.200;2022-10-29T17:52:42;102.10;;;64.00;;
59294;SDS011;45067;44.654;20.200;2022-10-29T17:55:08;97.30;;;60.10;;
59294;SDS011;45067;44.654;20.200;2022-10-29T17:57:34;88.63;;;55.65;;
59294;SDS011;45067;44.654;20.200;2022-10-29T18:00:00;95.30;;;59.28;;
59294;SDS011;45067;44.654;20.200;2022-10-29T18:02:26;128.77;;;74.07;;
59294;SDS011;45067;44.654;20.200;2022-10-29T18:04:52;99.75;;;64.70;;
59294;SDS011;45067;44.654;20.200;2022-10-29T18:07:18;107.25;;;70.75;;
59294;SDS011;45067;44.654;20.200;2022-10-29T18:09:44;138.20;;;84.68;;
59294;SDS011;45067;44.654;20.200;2022-10-29T18:12:11;123.90;;;76.32;;